SPMAZ LICG-LIRJ
Flight info
| Callsign | SPMAZ |
|---|---|
| Flight time | 1h 41m |
| Altitude | 30000 |
| Route | ROBET M740 RONAB L12 ELB VFR |
| Aircraft | P46T/L-SBDGRWY/SB1 |
Departure
| Time | 2026-05-07 16:40 |
|---|---|
| Airport | Pantelleria Airport (LICG) |
Arrival
| Time | 2026-05-07 18:21 |
|---|---|
| Airport | Marina di Campo Airport (LIRJ) |
| Time | Latitude | Longitude | Altitude | Speed | Heading |
|---|---|---|---|---|---|
| 2026-05-07 16:24 | 36.81726 | 11.96679 | 628 ft | 0 kts | 345° |
| 2026-05-07 16:33 | 36.81744 | 11.96683 | 630 ft | 5 kts | 67° |
| 2026-05-07 16:33 | 36.81740 | 11.96728 | 628 ft | 6 kts | 122° |
| 2026-05-07 16:33 | 36.81722 | 11.96773 | 631 ft | 6 kts | 114° |
| 2026-05-07 16:34 | 36.81738 | 11.96810 | 632 ft | 6 kts | 28° |
| 2026-05-07 16:34 | 36.81779 | 11.96843 | 630 ft | 9 kts | 51° |
| 2026-05-07 16:34 | 36.81765 | 11.96905 | 631 ft | 5 kts | 118° |
| 2026-05-07 16:34 | 36.81763 | 11.96910 | 631 ft | 0 kts | 116° |
| 2026-05-07 16:36 | 36.81758 | 11.96922 | 630 ft | 6 kts | 118° |
| 2026-05-07 16:37 | 36.81710 | 11.96933 | 634 ft | 10 kts | 209° |
| 2026-05-07 16:37 | 36.81644 | 11.96871 | 638 ft | 16 kts | 252° |
| 2026-05-07 16:37 | 36.81613 | 11.96709 | 640 ft | 20 kts | 257° |
| 2026-05-07 16:37 | 36.81581 | 11.96541 | 639 ft | 20 kts | 257° |
| 2026-05-07 16:38 | 36.81546 | 11.96363 | 640 ft | 24 kts | 257° |
| 2026-05-07 16:38 | 36.81504 | 11.96153 | 645 ft | 24 kts | 257° |
| 2026-05-07 16:38 | 36.81461 | 11.95927 | 655 ft | 22 kts | 255° |
| 2026-05-07 16:38 | 36.81434 | 11.95759 | 659 ft | 17 kts | 282° |
| 2026-05-07 16:39 | 36.81420 | 11.95717 | 660 ft | 5 kts | 134° |
| 2026-05-07 16:39 | 36.81429 | 11.95773 | 659 ft | 7 kts | 71° |
| 2026-05-07 16:39 | 36.81463 | 11.95954 | 654 ft | 48 kts | 72° |
| 2026-05-07 16:39 | 36.81591 | 11.96584 | 660 ft | 94 kts | 75° |
| 2026-05-07 16:40 | 36.81767 | 11.97430 | 981 ft | 103 kts | 80° |
| 2026-05-07 16:40 | 36.81883 | 11.98323 | 1464 ft | 106 kts | 83° |
| 2026-05-07 16:40 | 36.82010 | 11.99277 | 1941 ft | 113 kts | 84° |
| 2026-05-07 16:40 | 36.82176 | 12.00249 | 2418 ft | 116 kts | 82° |
| 2026-05-07 16:41 | 36.82389 | 12.01230 | 2764 ft | 125 kts | 80° |
| 2026-05-07 16:41 | 36.82623 | 12.02333 | 3101 ft | 133 kts | 79° |
| 2026-05-07 16:41 | 36.82863 | 12.03435 | 3521 ft | 133 kts | 80° |
| 2026-05-07 16:41 | 36.83103 | 12.04581 | 3909 ft | 138 kts | 80° |
| 2026-05-07 16:42 | 36.83351 | 12.05753 | 4325 ft | 141 kts | 80° |
| 2026-05-07 16:42 | 36.83813 | 12.06835 | 4729 ft | 150 kts | 47° |
| 2026-05-07 16:42 | 36.84801 | 12.07373 | 5126 ft | 164 kts | 9° |
| 2026-05-07 16:42 | 36.85953 | 12.07312 | 5509 ft | 169 kts | 0° |
| 2026-05-07 16:43 | 36.87135 | 12.07236 | 5937 ft | 170 kts | 360° |
| 2026-05-07 16:43 | 36.88320 | 12.07166 | 6315 ft | 174 kts | 358° |
| 2026-05-07 16:43 | 36.89533 | 12.07096 | 6713 ft | 174 kts | 358° |
| 2026-05-07 16:43 | 36.90754 | 12.07024 | 7093 ft | 177 kts | 357° |
| 2026-05-07 16:44 | 36.91978 | 12.06952 | 7481 ft | 178 kts | 356° |
| 2026-05-07 16:44 | 36.93223 | 12.06880 | 7886 ft | 178 kts | 355° |
| 2026-05-07 16:44 | 36.94457 | 12.06809 | 8290 ft | 179 kts | 355° |
| 2026-05-07 16:44 | 36.95713 | 12.06736 | 8698 ft | 181 kts | 354° |
| 2026-05-07 16:45 | 36.96963 | 12.06663 | 9086 ft | 183 kts | 354° |
| 2026-05-07 16:45 | 36.98247 | 12.06589 | 9489 ft | 184 kts | 354° |
| 2026-05-07 16:45 | 36.99519 | 12.06514 | 9870 ft | 186 kts | 353° |
| 2026-05-07 16:45 | 37.00825 | 12.06438 | 10229 ft | 187 kts | 353° |
| 2026-05-07 16:46 | 37.02122 | 12.06363 | 10576 ft | 189 kts | 352° |
| 2026-05-07 16:46 | 37.03449 | 12.06285 | 10924 ft | 192 kts | 352° |
| 2026-05-07 16:46 | 37.04787 | 12.06208 | 11292 ft | 193 kts | 352° |
| 2026-05-07 16:46 | 37.06135 | 12.06129 | 11651 ft | 195 kts | 351° |
| 2026-05-07 16:47 | 37.07502 | 12.06049 | 12004 ft | 197 kts | 351° |
| 2026-05-07 16:47 | 37.08879 | 12.05969 | 12365 ft | 198 kts | 351° |
| 2026-05-07 16:47 | 37.10253 | 12.05889 | 12715 ft | 201 kts | 350° |
| 2026-05-07 16:47 | 37.11655 | 12.05807 | 13079 ft | 202 kts | 350° |
| 2026-05-07 16:48 | 37.13072 | 12.05725 | 13436 ft | 204 kts | 349° |
| 2026-05-07 16:48 | 37.14498 | 12.05641 | 13781 ft | 206 kts | 349° |
| 2026-05-07 16:48 | 37.15932 | 12.05558 | 14113 ft | 207 kts | 349° |
| 2026-05-07 16:48 | 37.17373 | 12.05475 | 14447 ft | 207 kts | 348° |
| 2026-05-07 16:49 | 37.18810 | 12.05391 | 14777 ft | 207 kts | 348° |
| 2026-05-07 16:49 | 37.20257 | 12.05306 | 15103 ft | 208 kts | 348° |
| 2026-05-07 16:49 | 37.21687 | 12.05222 | 15437 ft | 208 kts | 348° |
| 2026-05-07 16:49 | 37.23138 | 12.05138 | 15766 ft | 209 kts | 347° |
| 2026-05-07 16:50 | 37.24593 | 12.05053 | 16109 ft | 209 kts | 347° |
| 2026-05-07 16:50 | 37.26034 | 12.04968 | 16426 ft | 210 kts | 347° |
| 2026-05-07 16:50 | 37.27495 | 12.04883 | 16760 ft | 210 kts | 347° |
| 2026-05-07 16:50 | 37.28963 | 12.04797 | 17101 ft | 210 kts | 347° |
| 2026-05-07 16:51 | 37.30415 | 12.04712 | 17436 ft | 210 kts | 346° |
| 2026-05-07 16:51 | 37.31387 | 12.04654 | 17656 ft | 211 kts | 346° |
| 2026-05-07 16:51 | 37.33330 | 12.04541 | 18100 ft | 211 kts | 346° |
| 2026-05-07 16:51 | 37.34802 | 12.04454 | 18391 ft | 211 kts | 346° |
| 2026-05-07 16:52 | 37.36281 | 12.04367 | 18676 ft | 212 kts | 346° |
| 2026-05-07 16:52 | 37.37744 | 12.04281 | 18951 ft | 212 kts | 347° |
| 2026-05-07 16:52 | 37.39228 | 12.04194 | 19239 ft | 212 kts | 347° |
| 2026-05-07 16:52 | 37.40695 | 12.04108 | 19517 ft | 213 kts | 347° |
| 2026-05-07 16:53 | 37.42168 | 12.04021 | 19791 ft | 213 kts | 347° |
| 2026-05-07 16:53 | 37.43656 | 12.03934 | 20077 ft | 214 kts | 347° |
| 2026-05-07 16:53 | 37.45146 | 12.03846 | 20357 ft | 214 kts | 347° |
| 2026-05-07 16:53 | 37.46621 | 12.03760 | 20639 ft | 214 kts | 347° |
| 2026-05-07 16:54 | 37.48094 | 12.03676 | 21117 ft | 201 kts | 347° |
| 2026-05-07 16:54 | 37.49451 | 12.03599 | 21612 ft | 193 kts | 346° |
| 2026-05-07 16:54 | 37.50345 | 12.03537 | 21812 ft | 194 kts | 346° |
| 2026-05-07 16:54 | 37.52144 | 12.03426 | 22252 ft | 195 kts | 347° |
| 2026-05-07 16:55 | 37.53502 | 12.03347 | 22587 ft | 195 kts | 347° |
| 2026-05-07 16:55 | 37.54862 | 12.03267 | 22920 ft | 196 kts | 348° |
| 2026-05-07 16:55 | 37.56207 | 12.03188 | 23249 ft | 196 kts | 348° |
| 2026-05-07 16:55 | 37.57575 | 12.03107 | 23563 ft | 196 kts | 348° |
| 2026-05-07 16:56 | 37.58486 | 12.03053 | 23743 ft | 197 kts | 348° |
| 2026-05-07 16:56 | 37.60311 | 12.02945 | 24098 ft | 198 kts | 348° |
| 2026-05-07 16:56 | 37.63071 | 12.02782 | 24630 ft | 200 kts | 349° |
| 2026-05-07 16:57 | 37.64011 | 12.02726 | 24811 ft | 200 kts | 349° |
| 2026-05-07 16:57 | 37.65389 | 12.02645 | 25072 ft | 201 kts | 349° |
| 2026-05-07 16:57 | 37.67254 | 12.02534 | 25425 ft | 203 kts | 349° |
| 2026-05-07 16:57 | 37.68672 | 12.02450 | 25690 ft | 203 kts | 349° |
| 2026-05-07 16:58 | 37.69615 | 12.02394 | 25870 ft | 204 kts | 349° |
| 2026-05-07 16:58 | 37.71022 | 12.02311 | 26132 ft | 205 kts | 350° |
| 2026-05-07 16:58 | 37.72458 | 12.02226 | 26397 ft | 206 kts | 350° |
| 2026-05-07 16:58 | 37.73878 | 12.02142 | 26660 ft | 206 kts | 350° |
| 2026-05-07 16:59 | 37.75322 | 12.02056 | 26922 ft | 207 kts | 350° |
| 2026-05-07 16:59 | 37.76776 | 12.01970 | 27185 ft | 208 kts | 350° |
| 2026-05-07 16:59 | 37.78207 | 12.01885 | 27438 ft | 209 kts | 351° |
| 2026-05-07 16:59 | 37.79675 | 12.01798 | 27693 ft | 210 kts | 351° |
| 2026-05-07 17:00 | 37.81121 | 12.01711 | 27946 ft | 211 kts | 351° |
| 2026-05-07 17:00 | 37.82604 | 12.01624 | 28205 ft | 212 kts | 351° |
| 2026-05-07 17:00 | 37.84063 | 12.01537 | 28455 ft | 213 kts | 351° |
| 2026-05-07 17:00 | 37.85547 | 12.01449 | 28706 ft | 214 kts | 351° |
| 2026-05-07 17:01 | 37.87043 | 12.01359 | 28955 ft | 215 kts | 351° |
| 2026-05-07 17:01 | 37.88544 | 12.01270 | 29208 ft | 216 kts | 351° |
| 2026-05-07 17:01 | 37.90037 | 12.01181 | 29454 ft | 217 kts | 351° |
| 2026-05-07 17:01 | 37.91552 | 12.01091 | 29699 ft | 218 kts | 351° |
| 2026-05-07 17:02 | 37.93081 | 12.01000 | 29882 ft | 222 kts | 352° |
| 2026-05-07 17:02 | 37.94650 | 12.00905 | 29886 ft | 233 kts | 352° |
| 2026-05-07 17:02 | 37.96302 | 12.00810 | 29895 ft | 241 kts | 352° |
| 2026-05-07 17:02 | 37.97992 | 12.00712 | 29897 ft | 249 kts | 352° |
| 2026-05-07 17:03 | 37.99749 | 12.00609 | 29891 ft | 254 kts | 352° |
| 2026-05-07 17:03 | 38.01515 | 12.00503 | 29899 ft | 257 kts | 352° |
| 2026-05-07 17:03 | 38.03324 | 12.00398 | 29897 ft | 261 kts | 353° |
| 2026-05-07 17:03 | 38.05159 | 12.00291 | 29890 ft | 264 kts | 353° |
| 2026-05-07 17:04 | 38.06992 | 12.00181 | 29896 ft | 266 kts | 353° |
| 2026-05-07 17:04 | 38.08853 | 12.00069 | 29890 ft | 268 kts | 353° |
| 2026-05-07 17:04 | 38.10698 | 11.99959 | 29892 ft | 269 kts | 353° |
| 2026-05-07 17:04 | 38.12580 | 11.99847 | 29890 ft | 271 kts | 353° |
| 2026-05-07 17:05 | 38.14482 | 11.99732 | 29889 ft | 273 kts | 353° |
| 2026-05-07 17:05 | 38.16367 | 11.99619 | 29895 ft | 275 kts | 353° |
| 2026-05-07 17:05 | 38.18295 | 11.99504 | 29893 ft | 277 kts | 353° |
| 2026-05-07 17:05 | 38.20222 | 11.99389 | 29892 ft | 278 kts | 352° |
| 2026-05-07 17:06 | 38.22156 | 11.99273 | 29893 ft | 278 kts | 352° |
| 2026-05-07 17:06 | 38.24077 | 11.99158 | 29891 ft | 279 kts | 352° |
| 2026-05-07 17:06 | 38.26022 | 11.99041 | 29893 ft | 280 kts | 352° |
| 2026-05-07 17:06 | 38.27972 | 11.98923 | 29891 ft | 280 kts | 352° |
| 2026-05-07 17:07 | 38.29902 | 11.98807 | 29891 ft | 280 kts | 352° |
| 2026-05-07 17:07 | 38.31858 | 11.98689 | 29895 ft | 281 kts | 352° |
| 2026-05-07 17:07 | 38.33794 | 11.98572 | 29893 ft | 281 kts | 352° |
| 2026-05-07 17:07 | 38.35756 | 11.98454 | 29895 ft | 281 kts | 352° |
| 2026-05-07 17:08 | 38.37716 | 11.98336 | 29894 ft | 281 kts | 352° |
| 2026-05-07 17:08 | 38.39657 | 11.98218 | 29894 ft | 281 kts | 352° |
| 2026-05-07 17:08 | 38.41617 | 11.98100 | 29894 ft | 282 kts | 352° |
| 2026-05-07 17:08 | 38.43562 | 11.97982 | 29892 ft | 282 kts | 352° |
| 2026-05-07 17:09 | 38.45533 | 11.97863 | 29893 ft | 282 kts | 352° |
| 2026-05-07 17:09 | 38.47480 | 11.97745 | 29893 ft | 282 kts | 352° |
| 2026-05-07 17:09 | 38.49431 | 11.97627 | 29890 ft | 282 kts | 351° |
| 2026-05-07 17:09 | 38.51412 | 11.97507 | 29892 ft | 282 kts | 351° |
| 2026-05-07 17:10 | 38.53354 | 11.97389 | 29891 ft | 282 kts | 351° |
| 2026-05-07 17:10 | 38.55315 | 11.97270 | 29888 ft | 282 kts | 351° |
| 2026-05-07 17:10 | 38.57289 | 11.97150 | 29887 ft | 283 kts | 351° |
| 2026-05-07 17:10 | 38.59238 | 11.97032 | 29892 ft | 283 kts | 351° |
| 2026-05-07 17:11 | 38.61228 | 11.96911 | 29887 ft | 283 kts | 351° |
| 2026-05-07 17:11 | 38.63178 | 11.96793 | 29889 ft | 283 kts | 351° |
| 2026-05-07 17:11 | 38.65154 | 11.96672 | 29889 ft | 283 kts | 351° |
| 2026-05-07 17:11 | 38.67106 | 11.96553 | 29888 ft | 283 kts | 351° |
| 2026-05-07 17:12 | 38.69088 | 11.96433 | 29889 ft | 283 kts | 351° |
| 2026-05-07 17:12 | 38.71039 | 11.96314 | 29887 ft | 283 kts | 351° |
| 2026-05-07 17:12 | 38.73016 | 11.96193 | 29887 ft | 283 kts | 351° |
| 2026-05-07 17:12 | 38.74987 | 11.96073 | 29889 ft | 283 kts | 351° |
| 2026-05-07 17:13 | 38.76931 | 11.95954 | 29886 ft | 283 kts | 350° |
| 2026-05-07 17:13 | 38.78890 | 11.95835 | 29883 ft | 283 kts | 350° |
| 2026-05-07 17:13 | 38.80867 | 11.95714 | 29886 ft | 283 kts | 350° |
| 2026-05-07 17:13 | 38.82847 | 11.95593 | 29891 ft | 283 kts | 350° |
| 2026-05-07 17:14 | 38.84798 | 11.95473 | 29885 ft | 283 kts | 350° |
| 2026-05-07 17:14 | 38.86755 | 11.95353 | 29889 ft | 283 kts | 350° |
| 2026-05-07 17:14 | 38.88729 | 11.95232 | 29891 ft | 283 kts | 350° |
| 2026-05-07 17:14 | 38.90711 | 11.95111 | 29889 ft | 283 kts | 350° |
| 2026-05-07 17:15 | 38.92682 | 11.94990 | 29889 ft | 284 kts | 350° |
| 2026-05-07 17:15 | 38.94636 | 11.94870 | 29887 ft | 284 kts | 349° |
| 2026-05-07 17:15 | 38.96615 | 11.94749 | 29892 ft | 284 kts | 349° |
| 2026-05-07 17:15 | 38.98574 | 11.94628 | 29892 ft | 284 kts | 349° |
| 2026-05-07 17:16 | 39.00558 | 11.94506 | 29891 ft | 284 kts | 349° |
| 2026-05-07 17:16 | 39.02536 | 11.94385 | 29894 ft | 284 kts | 349° |
| 2026-05-07 17:16 | 39.04494 | 11.94264 | 29893 ft | 284 kts | 349° |
| 2026-05-07 17:16 | 39.06484 | 11.94142 | 29893 ft | 284 kts | 349° |
| 2026-05-07 17:17 | 39.08446 | 11.94021 | 29894 ft | 284 kts | 349° |
| 2026-05-07 17:17 | 39.10413 | 11.93900 | 29894 ft | 284 kts | 349° |
| 2026-05-07 17:17 | 39.12401 | 11.93777 | 29892 ft | 285 kts | 349° |
| 2026-05-07 17:17 | 39.14361 | 11.93656 | 29896 ft | 285 kts | 349° |
| 2026-05-07 17:18 | 39.16351 | 11.93533 | 29895 ft | 285 kts | 349° |
| 2026-05-07 17:18 | 39.18333 | 11.93411 | 29896 ft | 285 kts | 349° |
| 2026-05-07 17:18 | 39.20296 | 11.93290 | 29902 ft | 285 kts | 349° |
| 2026-05-07 17:18 | 39.22287 | 11.93166 | 29905 ft | 285 kts | 348° |
| 2026-05-07 17:19 | 39.24262 | 11.93044 | 29900 ft | 285 kts | 348° |
| 2026-05-07 17:19 | 39.26228 | 11.92923 | 29903 ft | 285 kts | 348° |
| 2026-05-07 17:19 | 39.28225 | 11.92799 | 29903 ft | 285 kts | 348° |
| 2026-05-07 17:19 | 39.30216 | 11.92676 | 29907 ft | 285 kts | 348° |
| 2026-05-07 17:20 | 39.32185 | 11.92553 | 29900 ft | 286 kts | 348° |
| 2026-05-07 17:20 | 39.34173 | 11.92430 | 29902 ft | 286 kts | 348° |
| 2026-05-07 17:20 | 39.36144 | 11.92308 | 29903 ft | 286 kts | 348° |
| 2026-05-07 17:20 | 39.38137 | 11.92184 | 29902 ft | 286 kts | 348° |
| 2026-05-07 17:21 | 39.40136 | 11.92060 | 29907 ft | 286 kts | 348° |
| 2026-05-07 17:21 | 39.42101 | 11.91937 | 29914 ft | 286 kts | 348° |
| 2026-05-07 17:21 | 39.44095 | 11.91813 | 29910 ft | 286 kts | 348° |
| 2026-05-07 17:21 | 39.46065 | 11.91690 | 29907 ft | 286 kts | 348° |
| 2026-05-07 17:22 | 39.48069 | 11.91566 | 29909 ft | 286 kts | 348° |
| 2026-05-07 17:22 | 39.50039 | 11.91443 | 29911 ft | 286 kts | 348° |
| 2026-05-07 17:22 | 39.52035 | 11.91319 | 29912 ft | 286 kts | 348° |
| 2026-05-07 17:22 | 39.54034 | 11.91194 | 29912 ft | 286 kts | 348° |
| 2026-05-07 17:23 | 39.56001 | 11.91071 | 29911 ft | 286 kts | 348° |
| 2026-05-07 17:23 | 39.57996 | 11.90946 | 29915 ft | 286 kts | 348° |
| 2026-05-07 17:23 | 39.59988 | 11.90822 | 29916 ft | 286 kts | 348° |
| 2026-05-07 17:23 | 39.61965 | 11.90698 | 29915 ft | 286 kts | 348° |
| 2026-05-07 17:24 | 39.63970 | 11.90573 | 29916 ft | 286 kts | 348° |
| 2026-05-07 17:24 | 39.65942 | 11.90449 | 29915 ft | 286 kts | 348° |
| 2026-05-07 17:24 | 39.67948 | 11.90324 | 29916 ft | 287 kts | 348° |
| 2026-05-07 17:24 | 39.69926 | 11.90199 | 29920 ft | 287 kts | 348° |
| 2026-05-07 17:25 | 39.71927 | 11.90074 | 29917 ft | 287 kts | 348° |
| 2026-05-07 17:25 | 39.73906 | 11.89950 | 29914 ft | 287 kts | 348° |
| 2026-05-07 17:25 | 39.75884 | 11.89826 | 29919 ft | 287 kts | 348° |
| 2026-05-07 17:25 | 39.77882 | 11.89700 | 29918 ft | 287 kts | 348° |
| 2026-05-07 17:26 | 39.79871 | 11.89575 | 29919 ft | 287 kts | 348° |
| 2026-05-07 17:26 | 39.81875 | 11.89449 | 29923 ft | 287 kts | 348° |
| 2026-05-07 17:26 | 39.83883 | 11.89323 | 29918 ft | 287 kts | 348° |
| 2026-05-07 17:26 | 39.85862 | 11.89192 | 29920 ft | 286 kts | 346° |
| 2026-05-07 17:27 | 39.87763 | 11.88718 | 29910 ft | 275 kts | 333° |
| 2026-05-07 17:27 | 39.89537 | 11.87847 | 29924 ft | 270 kts | 328° |
| 2026-05-07 17:27 | 39.91301 | 11.86959 | 29924 ft | 271 kts | 329° |
| 2026-05-07 17:27 | 39.93043 | 11.86096 | 29925 ft | 271 kts | 329° |
| 2026-05-07 17:28 | 39.94808 | 11.85216 | 29927 ft | 271 kts | 329° |
| 2026-05-07 17:28 | 39.96569 | 11.84332 | 29926 ft | 271 kts | 329° |
| 2026-05-07 17:28 | 39.98310 | 11.83460 | 29929 ft | 271 kts | 329° |
| 2026-05-07 17:28 | 40.00078 | 11.82574 | 29930 ft | 271 kts | 329° |
| 2026-05-07 17:29 | 40.01826 | 11.81697 | 29934 ft | 271 kts | 329° |
| 2026-05-07 17:29 | 40.03595 | 11.80810 | 29933 ft | 271 kts | 329° |
| 2026-05-07 17:29 | 40.05340 | 11.79934 | 29933 ft | 271 kts | 329° |
| 2026-05-07 17:29 | 40.07103 | 11.79048 | 29938 ft | 271 kts | 329° |
| 2026-05-07 17:30 | 40.08862 | 11.78167 | 29939 ft | 271 kts | 329° |
| 2026-05-07 17:30 | 40.10625 | 11.77283 | 29940 ft | 271 kts | 329° |
| 2026-05-07 17:30 | 40.12387 | 11.76398 | 29940 ft | 271 kts | 329° |
| 2026-05-07 17:30 | 40.14151 | 11.75512 | 29942 ft | 271 kts | 329° |
| 2026-05-07 17:31 | 40.15909 | 11.74628 | 29940 ft | 271 kts | 329° |
| 2026-05-07 17:31 | 40.17671 | 11.73742 | 29940 ft | 271 kts | 329° |
| 2026-05-07 17:31 | 40.19429 | 11.72857 | 29940 ft | 271 kts | 329° |
| 2026-05-07 17:31 | 40.21191 | 11.71970 | 29940 ft | 271 kts | 329° |
| 2026-05-07 17:32 | 40.22953 | 11.71082 | 29941 ft | 271 kts | 329° |
| 2026-05-07 17:32 | 40.24718 | 11.70193 | 29942 ft | 271 kts | 329° |
| 2026-05-07 17:32 | 40.26481 | 11.69304 | 29944 ft | 271 kts | 329° |
| 2026-05-07 17:32 | 40.28244 | 11.68414 | 29948 ft | 271 kts | 329° |
| 2026-05-07 17:33 | 40.29981 | 11.67537 | 29944 ft | 271 kts | 329° |
| 2026-05-07 17:33 | 40.31746 | 11.66645 | 29946 ft | 271 kts | 329° |
| 2026-05-07 17:33 | 40.33498 | 11.65761 | 29933 ft | 269 kts | 330° |
| 2026-05-07 17:33 | 40.35235 | 11.64886 | 29941 ft | 266 kts | 330° |
| 2026-05-07 17:34 | 40.36958 | 11.64013 | 29935 ft | 264 kts | 330° |
| 2026-05-07 17:34 | 40.38668 | 11.63145 | 29933 ft | 263 kts | 330° |
| 2026-05-07 17:34 | 40.40377 | 11.62278 | 29929 ft | 263 kts | 330° |
| 2026-05-07 17:34 | 40.42081 | 11.61412 | 29937 ft | 262 kts | 330° |
| 2026-05-07 17:35 | 40.43780 | 11.60548 | 29933 ft | 262 kts | 330° |
| 2026-05-07 17:35 | 40.45481 | 11.59684 | 29931 ft | 262 kts | 330° |
| 2026-05-07 17:35 | 40.47180 | 11.58819 | 29929 ft | 262 kts | 330° |
| 2026-05-07 17:35 | 40.48879 | 11.57955 | 29933 ft | 262 kts | 330° |
| 2026-05-07 17:36 | 40.50578 | 11.57089 | 29931 ft | 262 kts | 330° |
| 2026-05-07 17:36 | 40.52275 | 11.56225 | 29931 ft | 262 kts | 330° |
| 2026-05-07 17:36 | 40.53974 | 11.55359 | 29930 ft | 262 kts | 330° |
| 2026-05-07 17:36 | 40.55675 | 11.54492 | 29936 ft | 262 kts | 330° |
| 2026-05-07 17:37 | 40.57380 | 11.53622 | 29932 ft | 262 kts | 330° |
| 2026-05-07 17:37 | 40.59082 | 11.52753 | 29934 ft | 262 kts | 330° |
| 2026-05-07 17:37 | 40.60784 | 11.51884 | 29936 ft | 263 kts | 330° |
| 2026-05-07 17:37 | 40.62466 | 11.51024 | 29935 ft | 263 kts | 330° |
| 2026-05-07 17:38 | 40.64172 | 11.50151 | 29934 ft | 263 kts | 330° |
| 2026-05-07 17:38 | 40.65881 | 11.49277 | 29935 ft | 263 kts | 329° |
| 2026-05-07 17:38 | 40.67588 | 11.48404 | 29937 ft | 263 kts | 329° |
| 2026-05-07 17:38 | 40.69295 | 11.47529 | 29937 ft | 264 kts | 329° |
| 2026-05-07 17:39 | 40.71004 | 11.46653 | 29937 ft | 264 kts | 329° |
| 2026-05-07 17:39 | 40.72370 | 11.45953 | 29936 ft | 264 kts | 329° |
| 2026-05-07 17:39 | 40.73899 | 11.45169 | 29937 ft | 264 kts | 329° |
| 2026-05-07 17:39 | 40.75610 | 11.44290 | 29942 ft | 264 kts | 329° |
| 2026-05-07 17:40 | 40.77322 | 11.43411 | 29943 ft | 264 kts | 329° |
| 2026-05-07 17:40 | 40.78310 | 11.42904 | 29936 ft | 264 kts | 329° |
| 2026-05-07 17:40 | 40.80025 | 11.42022 | 29938 ft | 264 kts | 329° |
| 2026-05-07 17:40 | 40.81741 | 11.41140 | 29943 ft | 265 kts | 329° |
| 2026-05-07 17:41 | 40.83459 | 11.40256 | 29943 ft | 265 kts | 329° |
| 2026-05-07 17:41 | 40.85174 | 11.39374 | 29941 ft | 265 kts | 329° |
| 2026-05-07 17:41 | 40.86890 | 11.38490 | 29943 ft | 265 kts | 329° |
| 2026-05-07 17:41 | 40.88588 | 11.37615 | 29940 ft | 265 kts | 329° |
| 2026-05-07 17:42 | 40.90310 | 11.36727 | 29945 ft | 265 kts | 329° |
| 2026-05-07 17:42 | 40.92027 | 11.35842 | 29944 ft | 265 kts | 328° |
| 2026-05-07 17:42 | 40.93751 | 11.34952 | 29944 ft | 265 kts | 328° |
| 2026-05-07 17:42 | 40.95473 | 11.34063 | 29947 ft | 265 kts | 328° |
| 2026-05-07 17:43 | 40.97200 | 11.33170 | 29945 ft | 265 kts | 328° |
| 2026-05-07 17:43 | 40.98901 | 11.32291 | 29948 ft | 265 kts | 328° |
| 2026-05-07 17:43 | 41.00626 | 11.31399 | 29949 ft | 265 kts | 328° |
| 2026-05-07 17:43 | 41.02357 | 11.30503 | 29946 ft | 265 kts | 328° |
| 2026-05-07 17:44 | 41.04062 | 11.29620 | 29951 ft | 265 kts | 328° |
| 2026-05-07 17:44 | 41.05794 | 11.28723 | 29950 ft | 266 kts | 328° |
| 2026-05-07 17:44 | 41.07498 | 11.27840 | 29950 ft | 266 kts | 328° |
| 2026-05-07 17:44 | 41.09231 | 11.26940 | 29953 ft | 266 kts | 328° |
| 2026-05-07 17:45 | 41.10947 | 11.26050 | 29952 ft | 266 kts | 328° |
| 2026-05-07 17:45 | 41.12654 | 11.25163 | 29952 ft | 266 kts | 328° |
| 2026-05-07 17:45 | 41.14385 | 11.24264 | 29952 ft | 266 kts | 328° |
| 2026-05-07 17:45 | 41.16111 | 11.23367 | 29950 ft | 266 kts | 328° |
| 2026-05-07 17:46 | 41.17818 | 11.22479 | 29955 ft | 266 kts | 328° |
| 2026-05-07 17:46 | 41.19549 | 11.21578 | 29956 ft | 266 kts | 328° |
| 2026-05-07 17:46 | 41.21272 | 11.20680 | 29958 ft | 266 kts | 328° |
| 2026-05-07 17:46 | 41.22995 | 11.19783 | 29957 ft | 266 kts | 328° |
| 2026-05-07 17:47 | 41.24703 | 11.18892 | 29960 ft | 266 kts | 328° |
| 2026-05-07 17:47 | 41.26413 | 11.18000 | 29959 ft | 266 kts | 328° |
| 2026-05-07 17:47 | 41.28145 | 11.17096 | 29959 ft | 266 kts | 328° |
| 2026-05-07 17:47 | 41.29869 | 11.16196 | 29958 ft | 266 kts | 328° |
| 2026-05-07 17:48 | 41.31578 | 11.15303 | 29961 ft | 266 kts | 328° |
| 2026-05-07 17:48 | 41.33310 | 11.14397 | 29962 ft | 266 kts | 328° |
| 2026-05-07 17:48 | 41.35018 | 11.13504 | 29960 ft | 266 kts | 328° |
| 2026-05-07 17:48 | 41.36750 | 11.12598 | 29963 ft | 266 kts | 328° |
| 2026-05-07 17:49 | 41.38455 | 11.11704 | 29968 ft | 266 kts | 328° |
| 2026-05-07 17:49 | 41.40188 | 11.10796 | 29966 ft | 266 kts | 328° |
| 2026-05-07 17:49 | 41.41896 | 11.09901 | 29965 ft | 266 kts | 328° |
| 2026-05-07 17:49 | 41.43627 | 11.08992 | 29969 ft | 266 kts | 328° |
| 2026-05-07 17:50 | 41.45330 | 11.08099 | 29967 ft | 266 kts | 328° |
| 2026-05-07 17:50 | 41.47057 | 11.07191 | 29962 ft | 266 kts | 328° |
| 2026-05-07 17:50 | 41.48786 | 11.06283 | 29966 ft | 266 kts | 328° |
| 2026-05-07 17:50 | 41.50514 | 11.05375 | 29972 ft | 266 kts | 328° |
| 2026-05-07 17:51 | 41.52216 | 11.04480 | 29968 ft | 266 kts | 328° |
| 2026-05-07 17:51 | 41.53944 | 11.03571 | 29963 ft | 266 kts | 328° |
| 2026-05-07 17:51 | 41.55664 | 11.02665 | 29971 ft | 266 kts | 328° |
| 2026-05-07 17:51 | 41.57368 | 11.01768 | 29967 ft | 266 kts | 328° |
| 2026-05-07 17:52 | 41.59098 | 11.00856 | 29971 ft | 266 kts | 328° |
| 2026-05-07 17:52 | 41.60823 | 10.99947 | 29972 ft | 266 kts | 328° |
| 2026-05-07 17:52 | 41.62522 | 10.99051 | 29964 ft | 265 kts | 328° |
| 2026-05-07 17:52 | 41.64246 | 10.98141 | 29973 ft | 265 kts | 328° |
| 2026-05-07 17:53 | 41.65964 | 10.97233 | 29973 ft | 265 kts | 328° |
| 2026-05-07 17:53 | 41.67679 | 10.96327 | 29974 ft | 265 kts | 328° |
| 2026-05-07 17:53 | 41.69396 | 10.95419 | 29970 ft | 265 kts | 328° |
| 2026-05-07 17:53 | 41.71112 | 10.94511 | 29974 ft | 264 kts | 328° |
| 2026-05-07 17:54 | 41.72813 | 10.93610 | 29974 ft | 264 kts | 328° |
| 2026-05-07 17:54 | 41.74516 | 10.92708 | 29973 ft | 264 kts | 328° |
| 2026-05-07 17:54 | 41.76230 | 10.91800 | 29972 ft | 263 kts | 328° |
| 2026-05-07 17:54 | 41.77916 | 10.90906 | 29971 ft | 263 kts | 328° |
| 2026-05-07 17:55 | 41.79624 | 10.89999 | 29975 ft | 263 kts | 328° |
| 2026-05-07 17:55 | 41.81329 | 10.89094 | 29977 ft | 263 kts | 328° |
| 2026-05-07 17:55 | 41.83012 | 10.88200 | 29974 ft | 262 kts | 328° |
| 2026-05-07 17:55 | 41.84720 | 10.87292 | 29974 ft | 262 kts | 328° |
| 2026-05-07 17:56 | 41.86417 | 10.86390 | 29974 ft | 261 kts | 328° |
| 2026-05-07 17:56 | 41.88088 | 10.85501 | 29976 ft | 261 kts | 328° |
| 2026-05-07 17:56 | 41.89781 | 10.84599 | 29976 ft | 261 kts | 328° |
| 2026-05-07 17:56 | 41.91452 | 10.83709 | 29975 ft | 260 kts | 328° |
| 2026-05-07 17:57 | 41.93139 | 10.82809 | 29976 ft | 260 kts | 328° |
| 2026-05-07 17:57 | 41.94253 | 10.82215 | 29977 ft | 260 kts | 328° |
| 2026-05-07 17:57 | 41.96492 | 10.81018 | 29891 ft | 262 kts | 328° |
| 2026-05-07 17:57 | 41.98203 | 10.80102 | 29758 ft | 265 kts | 328° |
| 2026-05-07 17:58 | 41.99911 | 10.79190 | 29601 ft | 268 kts | 328° |
| 2026-05-07 17:58 | 42.01660 | 10.78256 | 29403 ft | 270 kts | 328° |
| 2026-05-07 17:58 | 42.03419 | 10.77318 | 29174 ft | 273 kts | 328° |
| 2026-05-07 17:58 | 42.05164 | 10.76388 | 28856 ft | 272 kts | 329° |
| 2026-05-07 17:59 | 42.06935 | 10.75441 | 28482 ft | 272 kts | 329° |
| 2026-05-07 17:59 | 42.08683 | 10.74503 | 28101 ft | 272 kts | 329° |
| 2026-05-07 17:59 | 42.10446 | 10.73560 | 27646 ft | 271 kts | 329° |
| 2026-05-07 17:59 | 42.12183 | 10.72630 | 27150 ft | 270 kts | 330° |
| 2026-05-07 18:00 | 42.13939 | 10.71687 | 26642 ft | 270 kts | 330° |
| 2026-05-07 18:00 | 42.15689 | 10.70746 | 26129 ft | 270 kts | 330° |
| 2026-05-07 18:00 | 42.17406 | 10.69828 | 25547 ft | 264 kts | 331° |
| 2026-05-07 18:00 | 42.19109 | 10.68916 | 24812 ft | 259 kts | 331° |
| 2026-05-07 18:01 | 42.20752 | 10.68029 | 24129 ft | 256 kts | 332° |
| 2026-05-07 18:01 | 42.22402 | 10.67138 | 23428 ft | 253 kts | 332° |
| 2026-05-07 18:01 | 42.23483 | 10.66556 | 22894 ft | 251 kts | 332° |
| 2026-05-07 18:01 | 42.25629 | 10.65399 | 21837 ft | 249 kts | 332° |
| 2026-05-07 18:02 | 42.28827 | 10.63673 | 20369 ft | 247 kts | 333° |
| 2026-05-07 18:02 | 42.29888 | 10.63099 | 19886 ft | 247 kts | 333° |
| 2026-05-07 18:02 | 42.32018 | 10.61949 | 18932 ft | 247 kts | 333° |
| 2026-05-07 18:03 | 42.33083 | 10.61374 | 18466 ft | 248 kts | 333° |
| 2026-05-07 18:03 | 42.34687 | 10.60507 | 17693 ft | 247 kts | 333° |
| 2026-05-07 18:03 | 42.36272 | 10.59650 | 16916 ft | 247 kts | 334° |
| 2026-05-07 18:03 | 42.37873 | 10.58784 | 16148 ft | 245 kts | 334° |
| 2026-05-07 18:04 | 42.39440 | 10.57936 | 15416 ft | 244 kts | 334° |
| 2026-05-07 18:04 | 42.41014 | 10.57083 | 14724 ft | 242 kts | 335° |
| 2026-05-07 18:04 | 42.42571 | 10.56239 | 14058 ft | 239 kts | 335° |
| 2026-05-07 18:04 | 42.44099 | 10.55409 | 13357 ft | 236 kts | 335° |
| 2026-05-07 18:05 | 42.45625 | 10.54581 | 12625 ft | 234 kts | 336° |
| 2026-05-07 18:05 | 42.47117 | 10.53771 | 11918 ft | 231 kts | 336° |
| 2026-05-07 18:05 | 42.48596 | 10.52967 | 11224 ft | 229 kts | 336° |
| 2026-05-07 18:05 | 42.50078 | 10.52162 | 10550 ft | 227 kts | 337° |
| 2026-05-07 18:06 | 42.50135 | 10.52131 | 10527 ft | 227 kts | 337° |
| 2026-05-07 18:06 | 42.51295 | 10.51499 | 10029 ft | 224 kts | 337° |
| 2026-05-07 18:06 | 42.52736 | 10.50714 | 9363 ft | 221 kts | 338° |
| 2026-05-07 18:06 | 42.54164 | 10.49938 | 8691 ft | 219 kts | 338° |
| 2026-05-07 18:07 | 42.55569 | 10.49193 | 8032 ft | 218 kts | 339° |
| 2026-05-07 18:07 | 42.56980 | 10.48442 | 7394 ft | 216 kts | 339° |
| 2026-05-07 18:07 | 42.58342 | 10.47643 | 6752 ft | 214 kts | 329° |
| 2026-05-07 18:07 | 42.59334 | 10.46163 | 6087 ft | 214 kts | 296° |
| 2026-05-07 18:08 | 42.59665 | 10.44231 | 5465 ft | 212 kts | 277° |
| 2026-05-07 18:08 | 42.59782 | 10.42242 | 4922 ft | 208 kts | 275° |
| 2026-05-07 18:08 | 42.59951 | 10.40322 | 4483 ft | 200 kts | 289° |
| 2026-05-07 18:08 | 42.60650 | 10.38741 | 4133 ft | 193 kts | 309° |
| 2026-05-07 18:09 | 42.61446 | 10.37324 | 3790 ft | 190 kts | 309° |
| 2026-05-07 18:09 | 42.62246 | 10.35904 | 3434 ft | 188 kts | 309° |
| 2026-05-07 18:09 | 42.63029 | 10.34510 | 3098 ft | 186 kts | 309° |
| 2026-05-07 18:09 | 42.63813 | 10.33111 | 2768 ft | 184 kts | 309° |
| 2026-05-07 18:10 | 42.64596 | 10.31765 | 2482 ft | 181 kts | 312° |
| 2026-05-07 18:10 | 42.65460 | 10.30560 | 2250 ft | 174 kts | 320° |
| 2026-05-07 18:10 | 42.66364 | 10.29541 | 2167 ft | 162 kts | 324° |
| 2026-05-07 18:10 | 42.67235 | 10.28667 | 2103 ft | 155 kts | 327° |
| 2026-05-07 18:11 | 42.68151 | 10.27887 | 1908 ft | 157 kts | 332° |
| 2026-05-07 18:11 | 42.69143 | 10.27227 | 1718 ft | 157 kts | 337° |
| 2026-05-07 18:11 | 42.70146 | 10.26655 | 1429 ft | 162 kts | 341° |
| 2026-05-07 18:11 | 42.71184 | 10.26170 | 1082 ft | 145 kts | 343° |
| 2026-05-07 18:12 | 42.72048 | 10.25789 | 874 ft | 117 kts | 343° |
| 2026-05-07 18:12 | 42.72784 | 10.25453 | 676 ft | 102 kts | 341° |
| 2026-05-07 18:12 | 42.73421 | 10.25158 | 560 ft | 94 kts | 343° |
| 2026-05-07 18:12 | 42.74036 | 10.24868 | 385 ft | 95 kts | 344° |
| 2026-05-07 18:13 | 42.74661 | 10.24611 | 284 ft | 93 kts | 342° |
| 2026-05-07 18:13 | 42.75284 | 10.24341 | 133 ft | 93 kts | 343° |
| 2026-05-07 18:13 | 42.75876 | 10.24074 | 28 ft | 84 kts | 341° |
| 2026-05-07 18:13 | 42.76423 | 10.23809 | 36 ft | 90 kts | 343° |
| 2026-05-07 18:14 | 42.76980 | 10.23504 | 366 ft | 85 kts | 339° |
| 2026-05-07 18:14 | 42.77573 | 10.23572 | 843 ft | 92 kts | 40° |
| 2026-05-07 18:14 | 42.78056 | 10.24198 | 1252 ft | 105 kts | 37° |
| 2026-05-07 18:14 | 42.78666 | 10.24900 | 1647 ft | 122 kts | 40° |
| 2026-05-07 18:15 | 42.79343 | 10.25705 | 2088 ft | 133 kts | 39° |
| 2026-05-07 18:15 | 42.80128 | 10.26614 | 2099 ft | 161 kts | 42° |
| 2026-05-07 18:15 | 42.80926 | 10.27699 | 2128 ft | 168 kts | 47° |
| 2026-05-07 18:15 | 42.81596 | 10.28960 | 2244 ft | 163 kts | 65° |
| 2026-05-07 18:16 | 42.81862 | 10.30465 | 2091 ft | 171 kts | 88° |
| 2026-05-07 18:16 | 42.81644 | 10.32072 | 1974 ft | 172 kts | 112° |
| 2026-05-07 18:16 | 42.80932 | 10.33373 | 1818 ft | 174 kts | 140° |
| 2026-05-07 18:16 | 42.79871 | 10.34126 | 1526 ft | 177 kts | 160° |
| 2026-05-07 18:17 | 42.78694 | 10.34610 | 1324 ft | 173 kts | 167° |
| 2026-05-07 18:17 | 42.77533 | 10.34874 | 1283 ft | 165 kts | 174° |
| 2026-05-07 18:17 | 42.76390 | 10.34976 | 1065 ft | 164 kts | 180° |
| 2026-05-07 18:17 | 42.75293 | 10.34922 | 1057 ft | 154 kts | 189° |
| 2026-05-07 18:18 | 42.74297 | 10.34495 | 1064 ft | 148 kts | 210° |
| 2026-05-07 18:18 | 42.73456 | 10.33671 | 1009 ft | 148 kts | 224° |
| 2026-05-07 18:18 | 42.72739 | 10.32668 | 1044 ft | 146 kts | 234° |
| 2026-05-07 18:18 | 42.72247 | 10.31505 | 1179 ft | 138 kts | 251° |
| 2026-05-07 18:19 | 42.71994 | 10.30245 | 1178 ft | 143 kts | 262° |
| 2026-05-07 18:19 | 42.71883 | 10.28898 | 1197 ft | 143 kts | 269° |
| 2026-05-07 18:19 | 42.71891 | 10.27529 | 1156 ft | 139 kts | 277° |
| 2026-05-07 18:19 | 42.72077 | 10.26313 | 1048 ft | 120 kts | 292° |
| 2026-05-07 18:20 | 42.72488 | 10.25449 | 819 ft | 99 kts | 323° |
| 2026-05-07 18:20 | 42.73107 | 10.25168 | 616 ft | 95 kts | 353° |
| 2026-05-07 18:20 | 42.73750 | 10.24982 | 432 ft | 96 kts | 346° |
| 2026-05-07 18:20 | 42.74387 | 10.24732 | 342 ft | 96 kts | 343° |
| 2026-05-07 18:21 | 42.75020 | 10.24462 | 215 ft | 96 kts | 342° |
| 2026-05-07 18:21 | 42.75661 | 10.24171 | 55 ft | 93 kts | 343° |
| 2026-05-07 18:21 | 42.76189 | 10.23936 | 27 ft | 62 kts | 341° |
| 2026-05-07 18:21 | 42.76475 | 10.23807 | 28 ft | 26 kts | 341° |
| 2026-05-07 18:22 | 42.76565 | 10.23768 | 28 ft | 9 kts | 343° |
| 2026-05-07 18:22 | 42.76604 | 10.23761 | 28 ft | 9 kts | 4° |
| 2026-05-07 18:22 | 42.76613 | 10.23745 | 28 ft | 8 kts | 163° |
| 2026-05-07 18:22 | 42.76542 | 10.23778 | 28 ft | 12 kts | 165° |
| 2026-05-07 18:23 | 42.76463 | 10.23808 | 28 ft | 12 kts | 161° |
| 2026-05-07 18:23 | 42.76380 | 10.23849 | 27 ft | 13 kts | 160° |
| 2026-05-07 18:23 | 42.76339 | 10.23822 | 28 ft | 6 kts | 252° |
| 2026-05-07 18:23 | 42.76336 | 10.23786 | 26 ft | 0 kts | 258° |
| 2026-05-07 18:24 | 42.76331 | 10.23760 | 27 ft | 4 kts | 293° |
| 2026-05-07 18:24 | 42.76345 | 10.23753 | 26 ft | 1 kts | 40° |